Skip to main content.
Our real time weather data display below is updated continuously via our 24/7 live data feed.
 TIME   TEMPERATURE   WINDSPEED   DIRECTION   HUMIDITY   BAROMETER   RAINFALL 
7:15 23.7°C (74.7°F) 7.4 kmh (4.6 mph) NNE 67% 1015.5hPa (29.99 inHg) 0.3mm (0.01 in.)
6:15 25.0°C (77.0 °F) 11.1 kmh (6.9 mph) NNE 67% 1015.1hPa (29.98 inHg) 0.3mm (0.01 in.)
5:15 25.2°C (77.4 °F) 3.7 kmh (2.3 mph) ENE 55% 1015.4hPa (29.98 inHg) 0.3mm (0.01 in.)
4:15 26.3°C (79.3 °F) 16.7 kmh (10.4 mph) NE 55% 1015.3hPa (29.98 inHg) 0.3mm (0.01 in.)
3:15 26.6°C (79.9 °F) 5.6 kmh (3.5 mph) SSW 62% 1015.5hPa (29.99 inHg) 0.3mm (0.01 in.)
2:15 26.9°C (80.4 °F) 1.9 kmh (1.2 mph) N 59% 1015.6hPa (29.99 inHg) 0.3mm (0.01 in.)
1:15 27.2°C (81.0 °F) 9.3 kmh (5.8 mph) SSW 52% 1015.6hPa (29.99 inHg) 0.3mm (0.01 in.)
12:15 25.4°C (77.7 °F) 9.3 kmh (5.8 mph) NE 56% 1015.9hPa (30.00 inHg) 0.3mm (0.01 in.)
11:15 25.1°C (77.2 °F) 5.6 kmh (3.5 mph) NE 53% 1015.9hPa (30.00 inHg) 0.3mm (0.01 in.)
10:15 24.2°C (75.6 °F) 5.6 kmh (3.5 mph) E 58% 1015.3hPa (29.98 inHg) 0.3mm (0.01 in.)
9:15 23.0°C (73.4 °F) 5.6 kmh (3.5 mph) ENE 87% 1015.3hPa (29.98 inHg) 0.3mm (0.01 in.)
8:15 21.2°C (70.2 °F) 1.9 kmh (1.2 mph) N 87% 1014.7hPa (29.96 inHg) 0.3mm (0.01 in.)
7:15 19.8°C (67.6 °F) 1.9 kmh (1.2 mph) N 100% 1014.4hPa (29.96 inHg) 0.3mm (0.01 in.)
6:15 19.1°C (66.4 °F) 0.0 kmh (0.0 mph) N 100% 1014.2hPa (29.95 inHg) 0.3mm (0.01 in.)
5:15 19.2°C (66.6 °F) 1.9 kmh (1.2 mph) N 100% 1014.0hPa (29.94 inHg) 0.3mm (0.01 in.)
4:15 19.1°C (66.4 °F) 3.7 kmh (2.3 mph) N 100% 1013.9hPa (29.94 inHg) 0.0mm (0.00 in.)
3:15 19.3°C (66.7 °F) 0.0 kmh (0.0 mph) N 99% 1014.2hPa (29.95 inHg) 0.0mm (0.00 in.)
2:15 19.6°C (67.3 °F) 1.9 kmh (1.2 mph) N 98% 1014.2hPa (29.95 inHg) 0.0mm (0.00 in.)
1:15 19.7°C (67.5 °F) 3.7 kmh (2.3 mph) NE 98% 1014.0hPa (29.94 inHg) 0.0mm (0.00 in.)
12:15 19.9°C (67.8 °F) 0.0 kmh (0.0 mph) NE 98% 1014.0hPa (29.94 inHg) 0.0mm (0.00 in.)
11:15 19.9°C (67.8 °F) 0.0 kmh (0.0 mph) NE 97% 1014.0hPa (29.94 inHg) 0.0mm (0.00 in.)
10:15 19.9°C (67.8 °F) 9.3 kmh (5.8 mph) NNE 97% 1013.8hPa (29.94 inHg) 0.0mm (0.00 in.)
9:15 20.2°C (68.4 °F) 5.6 kmh (3.5 mph) N 94% 1013.5hPa (29.93 inHg) 0.0mm (0.00 in.)
8:15 20.7°C (69.3 °F) 5.6 kmh (3.5 mph) NW 89% 1012.7hPa (29.91 inHg) 0.0mm (0.00 in.)